Farmersville Station, New York
Current Conditions -  °F | °C
As of 1:35 PM on Monday 20 Oct 2014 (Local Time) from KOLE Reporting Station
Overcast Overcast  
Wind Chill: 42°   Ceiling: 7000
Heat Index: 46°   Visibility: 10mi
Dew Point: 43°   Wind: 9mph
Humidity: 87%   Direction: 200°SSW
Pressure: 29.85"   Gusts: NA
Location:  42.43°N, 78.36°W
Report Text: KOLE 201735Z AUTO 20008KT 10SM OVC070 08/06 A2985 RMK AO2
Loading
Personal Weather Stations






























Interactive Weather Map
Tropical Storm Tracking
New forecast layout! Learn more

10-Day Weather Forecast

Advertisements
Track Severe Weather on mobile